createdAt,value
2022-09-09T00:01:25.820Z,1.42
2022-09-09T00:06:31.279Z,1.38
2022-09-09T00:11:41.473Z,1.15
2022-09-09T00:16:45.797Z,1.05
2022-09-09T00:22:09.060Z,1.02
2022-09-09T00:27:13.521Z,1.40
2022-09-09T00:32:15.397Z,1.50
2022-09-09T00:37:12.817Z,1.65
2022-09-09T00:42:26.721Z,1.58
2022-09-09T00:47:47.907Z,1.60
2022-09-09T00:52:47.975Z,1.50
2022-09-09T01:03:21.997Z,1.23
2022-09-09T01:09:07.447Z,1.13
2022-09-09T01:14:35.996Z,1.42
2022-09-09T01:20:14.551Z,1.58
2022-09-09T01:25:41.333Z,1.10
2022-09-09T01:30:42.161Z,1.52
2022-09-09T01:36:11.524Z,1.20
2022-09-09T01:41:08.956Z,1.38
2022-09-09T01:46:07.852Z,1.20
2022-09-09T01:51:05.656Z,1.38
2022-09-09T01:56:36.836Z,1.10
2022-09-09T02:01:49.991Z,1.30
2022-09-09T02:06:49.189Z,1.33
2022-09-09T02:11:51.127Z,1.43
2022-09-09T02:16:53.992Z,1.05
2022-09-09T02:21:57.047Z,1.75
2022-09-09T02:26:59.457Z,1.38
2022-09-09T02:32:04.180Z,1.02
2022-09-09T02:37:03.651Z,1.48
2022-09-09T02:42:00.977Z,1.63
2022-09-09T02:47:14.166Z,1.00
2022-09-09T02:52:27.661Z,1.08
2022-09-09T02:57:29.099Z,1.33
2022-09-09T03:02:27.010Z,1.20
2022-09-09T03:07:24.524Z,1.40
2022-09-09T03:12:21.860Z,1.23
2022-09-09T03:17:19.323Z,2.58
2022-09-09T03:22:16.571Z,2.25
2022-09-09T03:27:15.466Z,1.60
2022-09-09T03:32:13.426Z,1.30
2022-09-09T03:37:10.951Z,0.80
2022-09-09T03:42:08.566Z,1.95
2022-09-09T03:47:07.432Z,1.88
2022-09-09T03:52:06.361Z,1.80
2022-09-09T03:57:05.712Z,1.42
2022-09-09T04:02:04.468Z,1.73
2022-09-09T04:07:03.137Z,1.95
2022-09-09T04:12:01.258Z,1.48
2022-09-09T04:17:00.655Z,1.80
2022-09-09T04:21:59.238Z,1.73
2022-09-09T04:26:56.846Z,1.80
2022-09-09T04:31:54.418Z,1.48
2022-09-09T04:36:53.076Z,1.58
2022-09-09T04:41:51.161Z,1.67
2022-09-09T04:46:48.412Z,1.80
2022-09-09T04:51:45.587Z,1.20
2022-09-09T04:56:44.467Z,1.73
2022-09-09T05:01:42.058Z,1.55
2022-09-09T05:06:39.672Z,1.55
2022-09-09T05:11:39.718Z,1.60
2022-09-09T05:21:34.153Z,1.50
2022-09-09T05:26:32.690Z,1.20
2022-09-09T05:31:31.801Z,1.52
2022-09-09T05:36:29.191Z,1.20
2022-09-09T05:41:26.414Z,1.00
2022-09-09T05:46:26.205Z,1.05
2022-09-09T05:51:27.727Z,1.50
2022-09-09T05:56:26.959Z,1.33
2022-09-09T06:01:33.142Z,1.00
2022-09-09T06:06:37.975Z,1.08
2022-09-09T06:11:37.237Z,1.10
2022-09-09T06:16:35.071Z,1.10
2022-09-09T06:21:34.973Z,1.23
2022-09-09T06:26:34.691Z,1.40
2022-09-09T06:31:35.602Z,1.38
2022-09-09T06:36:35.570Z,1.35
2022-09-09T06:41:34.337Z,1.50
2022-09-09T06:46:34.465Z,1.27
2022-09-09T06:51:35.094Z,1.73
2022-09-09T06:56:35.085Z,1.67
2022-09-09T07:01:35.179Z,1.48
2022-09-09T07:06:35.595Z,1.65
2022-09-09T07:11:38.579Z,1.60
2022-09-09T07:16:38.413Z,1.63
2022-09-09T07:21:35.690Z,1.40
2022-09-09T07:26:33.239Z,1.50
2022-09-09T07:31:33.113Z,1.38
2022-09-09T07:41:35.565Z,1.20
2022-09-09T07:46:33.362Z,1.23
2022-09-09T07:51:33.524Z,1.17
2022-09-09T07:56:33.562Z,1.20
2022-09-09T08:01:40.166Z,1.13
2022-09-09T08:06:41.298Z,1.08
2022-09-09T08:11:39.724Z,1.02
2022-09-09T08:16:40.524Z,0.90
2022-09-09T08:21:41.218Z,0.90
2022-09-09T08:26:42.682Z,1.30
2022-09-09T08:31:52.381Z,1.10
2022-09-09T08:36:50.838Z,0.90
2022-09-09T08:41:54.764Z,0.90
2022-09-09T08:47:09.739Z,1.25
2022-09-09T08:52:17.394Z,0.70
2022-09-09T08:57:23.484Z,1.13
2022-09-09T09:02:40.703Z,0.73
2022-09-09T09:08:05.390Z,0.70
2022-09-09T09:13:04.184Z,0.75
2022-09-09T09:18:01.546Z,0.75
2022-09-09T09:23:03.040Z,1.00
2022-09-09T09:28:19.025Z,0.45
2022-09-09T09:33:48.609Z,0.98
2022-09-09T09:44:42.004Z,0.70
2022-09-09T09:49:39.592Z,0.93
2022-09-09T09:54:43.383Z,0.60
2022-09-09T09:59:41.284Z,0.63
2022-09-09T10:04:40.142Z,0.90
2022-09-09T10:09:37.482Z,0.82
2022-09-09T10:14:36.481Z,0.90
2022-09-09T10:19:37.811Z,0.97
2022-09-09T10:25:02.613Z,0.80
2022-09-09T10:30:13.449Z,1.08
2022-09-09T10:35:34.578Z,1.08
2022-09-09T10:40:43.788Z,0.65
2022-09-09T10:46:10.227Z,0.70
2022-09-09T10:51:07.461Z,0.80
2022-09-09T10:56:16.332Z,1.20
2022-09-09T11:01:40.924Z,0.55
2022-09-09T11:06:44.026Z,0.90
2022-09-09T11:11:54.933Z,0.80
2022-09-09T11:16:57.851Z,1.00
2022-09-09T11:21:56.635Z,0.90
2022-09-09T11:27:04.140Z,1.15
2022-09-09T11:32:38.215Z,0.93
2022-09-09T11:37:54.025Z,0.65
2022-09-09T11:43:07.125Z,0.73
2022-09-09T11:48:26.976Z,0.75
2022-09-09T11:53:24.400Z,1.25
2022-09-09T11:58:23.735Z,0.70
2022-09-09T12:03:51.273Z,0.80
2022-09-09T12:08:56.262Z,0.70
2022-09-09T12:13:59.006Z,0.55
2022-09-09T12:19:10.538Z,0.75
2022-09-09T12:24:14.369Z,0.98
2022-09-09T12:29:20.363Z,0.80
2022-09-09T12:34:42.391Z,0.80
2022-09-09T12:39:48.654Z,0.80
2022-09-09T12:44:56.296Z,0.70
2022-09-09T12:49:54.006Z,0.88
2022-09-09T12:54:54.874Z,0.90
2022-09-09T12:59:52.407Z,0.88
2022-09-09T13:04:51.608Z,0.80
2022-09-09T13:09:50.271Z,1.10
2022-09-09T13:14:52.036Z,1.00
2022-09-09T13:19:54.115Z,1.05
2022-09-09T13:25:04.211Z,1.00
2022-09-09T13:30:02.229Z,1.00
2022-09-09T13:35:02.549Z,0.88
2022-09-09T13:40:00.267Z,0.70
2022-09-09T13:45:00.168Z,1.08
2022-09-09T13:49:57.391Z,1.05
2022-09-09T13:54:55.547Z,1.58
2022-09-09T14:00:11.313Z,0.93
2022-09-09T14:05:08.729Z,1.00
2022-09-09T14:10:07.719Z,0.88
2022-09-09T14:15:07.732Z,1.08
2022-09-09T14:20:10.387Z,0.95
2022-09-09T14:25:08.429Z,1.58
2022-09-09T14:30:06.073Z,0.90
2022-09-09T14:35:03.829Z,0.90
2022-09-09T14:40:01.255Z,1.00
2022-09-09T14:44:58.901Z,1.42
2022-09-09T14:49:56.322Z,1.10
2022-09-09T14:54:53.645Z,1.48
2022-09-09T14:59:51.536Z,1.33
2022-09-09T15:04:51.030Z,1.52
2022-09-09T15:09:49.552Z,1.40
2022-09-09T15:14:47.107Z,1.05
2022-09-09T15:19:45.306Z,1.63
2022-09-09T15:24:42.842Z,1.88
2022-09-09T15:29:40.076Z,1.52
2022-09-09T15:34:37.432Z,2.25
2022-09-09T15:39:38.740Z,1.63
2022-09-09T15:44:43.701Z,2.42
2022-09-09T15:49:41.266Z,1.88
2022-09-09T15:54:41.513Z,2.85
2022-09-09T15:59:38.807Z,1.92
2022-09-09T16:04:36.144Z,2.40
2022-09-09T16:09:36.319Z,2.35
2022-09-09T16:14:36.847Z,1.95
2022-09-09T16:19:35.677Z,2.53
2022-09-09T16:24:32.863Z,1.90
2022-09-09T16:29:30.588Z,2.75
2022-09-09T16:34:27.824Z,3.35
2022-09-09T16:39:25.625Z,2.33
2022-09-09T16:44:22.945Z,2.28
2022-09-09T16:49:20.230Z,2.92
2022-09-09T16:54:19.552Z,2.28
2022-09-09T16:59:19.712Z,2.47
2022-09-09T17:04:21.943Z,2.95
2022-09-09T17:09:20.978Z,3.53
2022-09-09T17:14:21.045Z,2.85
2022-09-09T17:24:17.756Z,2.75
2022-09-09T17:29:15.126Z,2.63
2022-09-09T17:34:12.573Z,4.82
2022-09-09T17:39:09.909Z,3.42
2022-09-09T17:49:14.416Z,5.28
2022-09-09T17:54:18.237Z,3.30
2022-09-09T17:59:16.981Z,3.45
2022-09-09T18:04:16.748Z,2.33
2022-09-09T18:09:23.622Z,4.05
2022-09-09T18:14:24.912Z,2.83
2022-09-09T18:19:31.375Z,2.85
2022-09-09T18:24:28.796Z,3.30
2022-09-09T18:29:26.510Z,3.55
2022-09-09T18:34:30.305Z,3.80
2022-09-09T18:39:30.003Z,3.95
2022-09-09T18:44:30.601Z,4.57
2022-09-09T18:49:28.176Z,4.10
2022-09-09T18:54:30.578Z,4.00
2022-09-09T18:59:28.861Z,3.42
2022-09-09T19:04:27.573Z,4.95
2022-09-09T19:09:29.316Z,4.73
2022-09-09T19:14:27.090Z,4.07
2022-09-09T19:19:27.887Z,4.47
2022-09-09T19:24:30.496Z,4.60
2022-09-09T19:29:32.057Z,3.40
2022-09-09T19:34:29.647Z,5.03
2022-09-09T19:39:27.483Z,4.82
2022-09-09T19:44:24.734Z,5.55
2022-09-09T19:49:22.125Z,4.95
2022-09-09T19:54:19.381Z,5.93
2022-09-09T19:59:16.776Z,5.88
2022-09-09T20:04:15.464Z,5.55
2022-09-09T20:09:17.756Z,6.00
2022-09-09T20:14:16.130Z,5.78
2022-09-09T20:19:16.504Z,5.50
2022-09-09T20:24:15.391Z,5.43
2022-09-09T20:29:16.367Z,6.22
2022-09-09T20:34:16.795Z,6.95
2022-09-09T20:39:20.189Z,6.25
2022-09-09T20:44:24.449Z,7.00
2022-09-09T20:49:24.486Z,7.38
2022-09-09T20:54:24.512Z,8.13
2022-09-09T21:04:22.126Z,7.25
2022-09-09T21:09:20.719Z,7.25
2022-09-09T21:14:18.739Z,8.77
2022-09-09T21:19:16.814Z,7.80
2022-09-09T21:24:14.424Z,7.22
2022-09-09T21:29:13.271Z,6.93
2022-09-09T21:34:11.301Z,7.35
2022-09-09T21:39:08.547Z,6.72
2022-09-09T21:44:05.856Z,6.90
2022-09-09T21:49:04.509Z,5.85
2022-09-09T21:54:01.807Z,5.95
2022-09-09T21:59:03.928Z,6.43
2022-09-09T22:04:02.378Z,5.55
2022-09-09T22:09:00.408Z,6.10
2022-09-09T22:13:58.291Z,5.85
2022-09-09T22:18:57.857Z,6.95
2022-09-09T22:24:03.918Z,6.50
2022-09-09T22:29:01.626Z,5.68
2022-09-09T22:33:59.146Z,5.57
2022-09-09T22:38:56.966Z,6.28
2022-09-09T22:43:54.246Z,5.65
2022-09-09T22:48:51.522Z,5.35
2022-09-09T22:53:49.015Z,5.22
2022-09-09T22:58:47.629Z,5.38
2022-09-09T23:03:49.129Z,5.00
2022-09-09T23:08:46.778Z,4.75
2022-09-09T23:13:52.171Z,3.38
2022-09-09T23:18:50.858Z,2.13
2022-09-09T23:23:48.853Z,2.88
2022-09-09T23:28:46.876Z,3.03
2022-09-09T23:33:45.123Z,2.83
2022-09-09T23:38:43.746Z,3.20
2022-09-09T23:43:41.499Z,2.97
2022-09-09T23:48:39.641Z,3.95
2022-09-09T23:53:37.833Z,3.45
2022-09-09T23:58:35.195Z,3.50
